Time;durP1;ratioP1;P1;durP2;ratioP2;P2;SDS_P1;SDS_P2;PMS_P1;PMS_P2;Temp;Humidity;BMP_temperature;BMP_pressure;BME280_temperature;BME280_humidity;BME280_pressure;Samples;Min_cycle;Max_cycle;Signal;HPM_P1;HPM_P2
2022/06/29 00:01:26;;;;;;;5.97;1.00;;;;;;;;;;4924871;29;20044;-61
2022/06/29 00:03:52;;;;;;;1.42;0.88;;;;;;;;;;4924751;29;20026;-61
2022/06/29 00:06:19;;;;;;;5.10;1.00;;;;;;;;;;4922396;29;20380;-60
2022/06/29 00:08:46;;;;;;;4.30;1.33;;;;;;;;;;4920004;29;20079;-61
2022/06/29 00:11:12;;;;;;;6.53;1.30;;;;;;;;;;4923587;29;20032;-61
2022/06/29 00:13:38;;;;;;;2.15;1.17;;;;;;;;;;4924609;29;20030;-61
2022/06/29 00:16:05;;;;;;;2.38;1.17;;;;;;;;;;4924436;29;20012;-61
2022/06/29 00:18:31;;;;;;;2.67;1.05;;;;;;;;;;4923835;29;20034;-61
2022/06/29 00:20:58;;;;;;;6.65;1.10;;;;;;;;;;4920086;29;20485;-61
2022/06/29 00:23:24;;;;;;;5.60;1.27;;;;;;;;;;4921713;29;20032;-61
2022/06/29 00:25:50;;;;;;;6.65;1.20;;;;;;;;;;4924400;29;20030;-62
2022/06/29 00:28:17;;;;;;;3.65;1.20;;;;;;;;;;4924501;29;20032;-61
2022/06/29 00:30:43;;;;;;;3.90;0.95;;;;;;;;;;4923891;29;20481;-61
2022/06/29 00:33:10;;;;;;;2.72;1.10;;;;;;;;;;4920264;29;20425;-61
2022/06/29 00:35:36;;;;;;;1.90;0.90;;;;;;;;;;4931984;29;20045;-61
2022/06/29 00:38:02;;;;;;;3.05;0.93;;;;;;;;;;4930886;29;20034;-61
2022/06/29 00:40:29;;;;;;;2.20;1.00;;;;;;;;;;4928305;29;20493;-61
2022/06/29 00:42:55;;;;;;;2.15;1.00;;;;;;;;;;4923944;29;20023;-61
2022/06/29 00:45:21;;;;;;;2.63;0.98;;;;;;;;;;4921880;29;20027;-61
2022/06/29 00:47:47;;;;;;;2.63;1.13;;;;;;;;;;4919808;29;20036;-61
2022/06/29 00:50:14;;;;;;;12.43;1.20;;;;;;;;;;4922267;29;20028;-61
2022/06/29 00:52:42;;;;;;;4.57;0.95;;;;;;;;;;4923809;29;20445;-61
2022/06/29 00:55:12;;;;;;;2.50;1.20;;;;;;;;;;4923841;29;20511;-61
2022/06/29 00:57:42;;;;;;;5.80;1.10;;;;;;;;;;4924126;29;20012;-61
2022/06/29 01:00:09;;;;;;;2.97;0.98;;;;;;;;;;4919796;29;20485;-61
2022/06/29 01:02:35;;;;;;;2.45;1.23;;;;;;;;;;4919790;29;20024;-60
2022/06/29 01:05:02;;;;;;;4.10;1.10;;;;;;;;;;4923717;29;20043;-61
2022/06/29 01:07:30;;;;;;;2.50;1.17;;;;;;;;;;4923846;29;20040;-61
2022/06/29 01:09:57;;;;;;;4.15;1.30;;;;;;;;;;4923667;29;20023;-61
2022/06/29 01:12:24;;;;;;;3.70;1.08;;;;;;;;;;4919287;29;20050;-61
2022/06/29 01:14:51;;;;;;;2.92;1.25;;;;;;;;;;4932693;29;20020;-61
2022/06/29 01:17:17;;;;;;;2.88;1.10;;;;;;;;;;4919984;29;20055;-61
2022/06/29 01:19:44;;;;;;;2.45;1.20;;;;;;;;;;4923512;29;20031;-61
2022/06/29 01:22:15;;;;;;;3.78;1.05;;;;;;;;;;4923591;29;20020;-61
2022/06/29 01:24:41;;;;;;;3.35;1.50;;;;;;;;;;4923490;29;20030;-60
2022/06/29 01:27:08;;;;;;;3.30;1.10;;;;;;;;;;4919404;29;20030;-61
2022/06/29 01:29:35;;;;;;;4.03;1.38;;;;;;;;;;4919501;29;20032;-61
2022/06/29 01:32:01;;;;;;;3.33;1.23;;;;;;;;;;4930310;29;20046;-61
2022/06/29 01:34:29;;;;;;;6.13;1.63;;;;;;;;;;4929583;29;20032;-61
2022/06/29 01:36:55;;;;;;;1.77;1.02;;;;;;;;;;4931877;29;20032;-61
2022/06/29 01:39:21;;;;;;;4.30;1.15;;;;;;;;;;4921059;29;20032;-61
2022/06/29 01:41:48;;;;;;;5.15;1.40;;;;;;;;;;4918763;29;20036;-61
2022/06/29 01:44:14;;;;;;;2.75;1.00;;;;;;;;;;4922141;29;20028;-61
2022/06/29 01:46:41;;;;;;;3.17;1.25;;;;;;;;;;4923702;29;20028;-60
2022/06/29 01:49:07;;;;;;;3.33;1.48;;;;;;;;;;4929044;29;20102;-60
2022/06/29 01:51:33;;;;;;;6.45;1.25;;;;;;;;;;4925246;29;20043;-61
2022/06/29 01:54:00;;;;;;;3.58;1.10;;;;;;;;;;4939753;29;20027;-60
2022/06/29 01:56:26;;;;;;;4.35;1.35;;;;;;;;;;4926694;29;20432;-60
2022/06/29 01:58:53;;;;;;;4.30;1.27;;;;;;;;;;4929374;29;20515;-61
2022/06/29 02:01:19;;;;;;;3.40;1.20;;;;;;;;;;4929366;29;20024;-61
2022/06/29 02:03:45;;;;;;;4.40;1.30;;;;;;;;;;4929130;29;20030;-60
2022/06/29 02:06:12;;;;;;;3.67;1.10;;;;;;;;;;4925983;29;20032;-61
2022/06/29 02:08:38;;;;;;;3.42;1.25;;;;;;;;;;4925660;29;20071;-61
2022/06/29 02:11:05;;;;;;;1.88;1.10;;;;;;;;;;4929210;29;20043;-61
2022/06/29 02:13:31;;;;;;;5.18;1.40;;;;;;;;;;4929300;29;20504;-61
2022/06/29 02:15:57;;;;;;;2.85;1.27;;;;;;;;;;4929233;29;20032;-61
2022/06/29 02:18:24;;;;;;;3.33;1.13;;;;;;;;;;4927026;29;20038;-61
2022/06/29 02:20:50;;;;;;;2.25;1.10;;;;;;;;;;4924576;29;20024;-61
2022/06/29 02:23:16;;;;;;;4.72;1.17;;;;;;;;;;4927832;29;20032;-61
2022/06/29 02:25:43;;;;;;;2.42;1.20;;;;;;;;;;4929153;29;20425;-61
2022/06/29 02:28:09;;;;;;;2.00;0.95;;;;;;;;;;4929000;29;20024;-61
2022/06/29 02:36:06;;;;;;;2.40;1.10;;;;;;;;;;4924848;29;20027;-61
2022/06/29 02:38:32;;;;;;;2.13;1.30;;;;;;;;;;4936340;29;20032;-60
2022/06/29 02:40:58;;;;;;;2.42;1.60;;;;;;;;;;4929334;29;20032;-61
2022/06/29 02:43:24;;;;;;;5.28;1.13;;;;;;;;;;4929147;29;20028;-61
2022/06/29 02:45:51;;;;;;;4.40;1.30;;;;;;;;;;4929068;29;20020;-61
2022/06/29 02:48:17;;;;;;;3.50;1.30;;;;;;;;;;4925989;29;20028;-61
2022/06/29 02:50:44;;;;;;;4.32;1.20;;;;;;;;;;4924598;29;20501;-61
2022/06/29 02:53:10;;;;;;;1.55;1.30;;;;;;;;;;4928516;29;20036;-60
2022/06/29 02:55:36;;;;;;;5.03;1.40;;;;;;;;;;4928879;29;20036;-60
2022/06/29 02:58:03;;;;;;;4.65;1.33;;;;;;;;;;4929130;29;20034;-60
2022/06/29 03:00:29;;;;;;;2.85;1.20;;;;;;;;;;4923512;29;20403;-61
2022/06/29 03:02:55;;;;;;;3.70;1.30;;;;;;;;;;4921323;29;20036;-61
2022/06/29 03:05:22;;;;;;;4.88;1.20;;;;;;;;;;4936134;29;20408;-60
2022/06/29 03:07:48;;;;;;;2.95;1.40;;;;;;;;;;4927766;29;20036;-61
2022/06/29 03:10:14;;;;;;;3.88;1.20;;;;;;;;;;4926212;29;20027;-61
2022/06/29 03:12:41;;;;;;;2.72;1.23;;;;;;;;;;4936363;29;20401;-61
2022/06/29 03:15:07;;;;;;;4.32;1.30;;;;;;;;;;4921762;29;20020;-61
2022/06/29 03:17:34;;;;;;;3.70;1.50;;;;;;;;;;4932693;29;20416;-61
2022/06/29 03:20:03;;;;;;;2.35;1.30;;;;;;;;;;4925766;29;20464;-61
2022/06/29 03:22:29;;;;;;;4.32;1.38;;;;;;;;;;4925747;29;20059;-60
2022/06/29 03:24:55;;;;;;;1.67;1.23;;;;;;;;;;4925486;29;20026;-61
2022/06/29 03:27:22;;;;;;;2.75;1.20;;;;;;;;;;4923335;29;20032;-60
2022/06/29 03:29:48;;;;;;;2.05;1.27;;;;;;;;;;4920664;29;20062;-61
2022/06/29 03:32:14;;;;;;;3.13;1.33;;;;;;;;;;4923922;29;20498;-61
2022/06/29 03:34:40;;;;;;;2.38;1.10;;;;;;;;;;4925416;29;20028;-61
2022/06/29 03:37:07;;;;;;;5.70;1.48;;;;;;;;;;4925289;29;20525;-61
2022/06/29 03:39:33;;;;;;;7.72;1.10;;;;;;;;;;4924491;29;20493;-61
2022/06/29 03:42:00;;;;;;;3.13;1.38;;;;;;;;;;4920709;29;20061;-60
2022/06/29 03:44:26;;;;;;;4.65;1.50;;;;;;;;;;4922332;29;20063;-61
2022/06/29 03:46:52;;;;;;;3.42;1.42;;;;;;;;;;4924958;29;20028;-61
2022/06/29 03:49:19;;;;;;;3.30;1.30;;;;;;;;;;4926050;29;20035;-60
2022/06/29 03:51:45;;;;;;;2.03;1.27;;;;;;;;;;4934907;29;20042;-60
2022/06/29 03:54:11;;;;;;;4.82;1.58;;;;;;;;;;4921374;29;20049;-61
2022/06/29 03:56:38;;;;;;;4.32;1.50;;;;;;;;;;4919851;29;20091;-61
2022/06/29 03:59:04;;;;;;;3.47;1.40;;;;;;;;;;4924482;29;20024;-60
2022/06/29 04:01:30;;;;;;;4.68;1.60;;;;;;;;;;4924704;29;20063;-61
2022/06/29 04:03:56;;;;;;;3.53;1.50;;;;;;;;;;4924850;29;20027;-61
2022/06/29 04:06:23;;;;;;;4.50;1.30;;;;;;;;;;4922599;29;20046;-60
2022/06/29 04:08:49;;;;;;;3.95;1.10;;;;;;;;;;4920564;29;20035;-61
2022/06/29 04:14:00;;;;;;;4.75;2.05;;;;;;;;;;4924536;29;20016;-61
2022/06/29 04:16:27;;;;;;;5.70;1.50;;;;;;;;;;4924476;29;20668;-61
2022/06/29 04:18:53;;;;;;;2.92;1.25;;;;;;;;;;4924593;29;20024;-60
2022/06/29 04:21:19;;;;;;;4.57;1.60;;;;;;;;;;4922168;29;20023;-60
2022/06/29 04:23:46;;;;;;;2.83;1.30;;;;;;;;;;4920239;29;20028;-60
2022/06/29 04:26:12;;;;;;;2.08;1.40;;;;;;;;;;4923307;29;20617;-61
2022/06/29 04:28:38;;;;;;;2.72;1.48;;;;;;;;;;4927500;29;20034;-61
2022/06/29 04:31:05;;;;;;;6.55;1.60;;;;;;;;;;4931576;29;20127;-61
2022/06/29 04:33:32;;;;;;;8.45;1.60;;;;;;;;;;4923205;29;20031;-61
2022/06/29 04:35:58;;;;;;;3.03;1.70;;;;;;;;;;4919945;29;20023;-61
2022/06/29 04:38:24;;;;;;;4.50;1.60;;;;;;;;;;4921898;29;20098;-61
2022/06/29 04:40:50;;;;;;;5.72;1.30;;;;;;;;;;4926754;29;20042;-61
2022/06/29 04:43:17;;;;;;;2.70;1.75;;;;;;;;;;4930239;29;20394;-61
2022/06/29 04:48:28;;;;;;;3.58;1.55;;;;;;;;;;4922661;29;20535;-61
2022/06/29 04:50:54;;;;;;;7.85;1.80;;;;;;;;;;4919333;29;20044;-61
2022/06/29 04:53:21;;;;;;;2.47;1.60;;;;;;;;;;4922052;29;20481;-61
2022/06/29 04:55:47;;;;;;;9.23;2.05;;;;;;;;;;4923884;29;20031;-62
2022/06/29 04:58:14;;;;;;;7.57;1.80;;;;;;;;;;4923710;29;20020;-62
2022/06/29 05:00:40;;;;;;;2.55;1.55;;;;;;;;;;4923870;29;20062;-62
2022/06/29 05:03:07;;;;;;;4.65;1.63;;;;;;;;;;4919238;29;20044;-62
2022/06/29 05:05:33;;;;;;;2.13;1.40;;;;;;;;;;4930840;29;20023;-62
2022/06/29 05:07:59;;;;;;;5.13;1.83;;;;;;;;;;4924033;29;20028;-62
2022/06/29 05:10:26;;;;;;;2.17;1.45;;;;;;;;;;4923498;29;20386;-62
2022/06/29 05:12:52;;;;;;;4.22;1.60;;;;;;;;;;4923413;29;20086;-62
2022/06/29 05:15:18;;;;;;;4.28;1.60;;;;;;;;;;4920855;29;20027;-62
2022/06/29 05:17:46;;;;;;;3.90;1.42;;;;;;;;;;4919119;29;20475;-62
2022/06/29 05:20:13;;;;;;;3.53;2.00;;;;;;;;;;4922349;29;20020;-62
2022/06/29 05:22:39;;;;;;;3.58;1.50;;;;;;;;;;4922722;29;20044;-63
2022/06/29 05:25:06;;;;;;;2.97;1.60;;;;;;;;;;4923556;29;20489;-62
2022/06/29 05:27:32;;;;;;;3.75;1.50;;;;;;;;;;4922186;29;20035;-62
2022/06/29 05:29:58;;;;;;;1.40;1.30;;;;;;;;;;4919164;29;20045;-62
2022/06/29 05:32:25;;;;;;;2.75;1.45;;;;;;;;;;4920646;29;20047;-62
2022/06/29 05:34:51;;;;;;;3.20;1.42;;;;;;;;;;4923081;29;20511;-62
2022/06/29 05:37:18;;;;;;;4.25;1.48;;;;;;;;;;4923461;29;20032;-62
2022/06/29 05:39:44;;;;;;;2.92;1.45;;;;;;;;;;4923280;29;20019;-62
2022/06/29 05:42:14;;;;;;;2.17;1.50;;;;;;;;;;4918894;29;20024;-62
2022/06/29 05:44:41;;;;;;;4.88;1.52;;;;;;;;;;4919244;29;20027;-62
2022/06/29 05:47:07;;;;;;;5.82;1.67;;;;;;;;;;4930182;29;20046;-62
2022/06/29 05:49:34;;;;;;;3.45;1.30;;;;;;;;;;4926861;29;20544;-62
2022/06/29 05:52:01;;;;;;;3.65;1.52;;;;;;;;;;4923015;29;20047;-62
2022/06/29 05:54:27;;;;;;;4.18;1.45;;;;;;;;;;4921962;29;20055;-63
2022/06/29 05:56:53;;;;;;;4.03;1.83;;;;;;;;;;4918309;29;20024;-62
2022/06/29 05:59:20;;;;;;;3.60;1.45;;;;;;;;;;4921468;29;20585;-62
2022/06/29 06:01:46;;;;;;;2.78;1.40;;;;;;;;;;4923001;29;20032;-62
2022/06/29 06:04:12;;;;;;;3.40;1.40;;;;;;;;;;4922909;29;20036;-62
2022/06/29 06:06:39;;;;;;;1.65;1.30;;;;;;;;;;4923146;29;20019;-62
2022/06/29 06:09:05;;;;;;;2.67;1.63;;;;;;;;;;4932234;29;20620;-62
2022/06/29 06:11:31;;;;;;;5.30;1.40;;;;;;;;;;4919293;29;20024;-62
2022/06/29 06:13:58;;;;;;;1.70;1.42;;;;;;;;;;4922704;29;20027;-63
2022/06/29 06:16:24;;;;;;;4.63;1.60;;;;;;;;;;4929105;29;20067;-62
2022/06/29 06:18:50;;;;;;;4.10;1.50;;;;;;;;;;4932084;29;20519;-62
2022/06/29 06:21:17;;;;;;;9.00;2.13;;;;;;;;;;4922130;29;20024;-62
2022/06/29 06:23:43;;;;;;;3.55;1.13;;;;;;;;;;4924022;29;20046;-63
2022/06/29 06:26:09;;;;;;;5.55;1.48;;;;;;;;;;4919465;29;20497;-62
2022/06/29 06:28:35;;;;;;;3.90;2.05;;;;;;;;;;4925820;29;20036;-62
2022/06/29 06:31:02;;;;;;;5.65;1.80;;;;;;;;;;4922287;29;20036;-62
2022/06/29 06:33:28;;;;;;;5.60;1.60;;;;;;;;;;4923530;29;20039;-62
2022/06/29 06:35:55;;;;;;;3.05;1.40;;;;;;;;;;4931634;29;20437;-62
2022/06/29 06:38:21;;;;;;;6.60;1.65;;;;;;;;;;4935083;29;20086;-62
2022/06/29 06:43:59;;;;;;;3.60;1.50;;;;;;;;;;4934347;29;20043;-62
2022/06/29 06:46:26;;;;;;;3.60;1.40;;;;;;;;;;4934488;29;20036;-62
2022/06/29 06:48:53;;;;;;;4.28;1.50;;;;;;;;;;4934379;29;20086;-62
2022/06/29 06:51:20;;;;;;;2.08;1.30;;;;;;;;;;4934152;29;20046;-62
2022/06/29 06:53:46;;;;;;;2.95;1.30;;;;;;;;;;4933891;29;20182;-62
2022/06/29 06:56:14;;;;;;;3.63;1.42;;;;;;;;;;4932743;29;20440;-62
2022/06/29 06:58:41;;;;;;;3.42;1.40;;;;;;;;;;4933740;29;20032;-62
2022/06/29 07:01:08;;;;;;;2.40;1.63;;;;;;;;;;4934091;29;20039;-62
2022/06/29 07:03:37;;;;;;;3.65;1.70;;;;;;;;;;4934333;29;20039;-63
2022/06/29 07:06:07;;;;;;;3.30;1.30;;;;;;;;;;4934408;29;20023;-62
2022/06/29 07:08:35;;;;;;;3.42;1.52;;;;;;;;;;4914791;29;20055;-62
2022/06/29 07:11:01;;;;;;;3.90;1.45;;;;;;;;;;4933790;29;20038;-62
2022/06/29 07:13:28;;;;;;;2.67;1.95;;;;;;;;;;4933645;29;20043;-62
2022/06/29 07:15:55;;;;;;;5.32;1.30;;;;;;;;;;4923362;29;20023;-62
2022/06/29 07:18:22;;;;;;;3.45;1.40;;;;;;;;;;4923798;29;20046;-62
2022/06/29 07:20:48;;;;;;;6.05;1.50;;;;;;;;;;4920681;29;20028;-62
2022/06/29 07:23:15;;;;;;;7.47;1.70;;;;;;;;;;4923257;29;20038;-62
2022/06/29 07:25:41;;;;;;;4.13;1.52;;;;;;;;;;4925604;29;20038;-62
2022/06/29 07:28:07;;;;;;;11.85;1.80;;;;;;;;;;4924938;29;20028;-62
2022/06/29 07:30:34;;;;;;;4.95;1.50;;;;;;;;;;4924894;29;20016;-62
2022/06/29 07:33:00;;;;;;;3.97;1.30;;;;;;;;;;4919568;29;20043;-62
2022/06/29 07:35:26;;;;;;;6.82;1.40;;;;;;;;;;4922441;29;20224;-63
2022/06/29 07:37:53;;;;;;;2.60;1.70;;;;;;;;;;4925056;29;20026;-62
2022/06/29 07:40:20;;;;;;;2.30;1.38;;;;;;;;;;4924628;29;20421;-61
2022/06/29 07:42:46;;;;;;;2.35;1.50;;;;;;;;;;4921502;29;20076;-63
2022/06/29 07:45:13;;;;;;;2.38;1.27;;;;;;;;;;4935069;29;20032;-62
2022/06/29 07:47:40;;;;;;;4.18;1.38;;;;;;;;;;4920667;29;20036;-62
2022/06/29 07:50:06;;;;;;;2.83;1.58;;;;;;;;;;4927663;29;20024;-63
2022/06/29 07:52:33;;;;;;;3.95;1.35;;;;;;;;;;4930755;29;20046;-62
2022/06/29 07:55:03;;;;;;;4.93;1.77;;;;;;;;;;4924811;29;20038;-62
2022/06/29 07:57:29;;;;;;;4.57;1.50;;;;;;;;;;4922822;29;20489;-62
2022/06/29 07:59:55;;;;;;;5.43;1.60;;;;;;;;;;4926786;29;20584;-62
2022/06/29 08:02:22;;;;;;;6.32;1.50;;;;;;;;;;4935341;29;20525;-62
2022/06/29 08:04:48;;;;;;;4.47;1.40;;;;;;;;;;4926676;29;20040;-63
2022/06/29 08:07:14;;;;;;;2.28;1.40;;;;;;;;;;4930439;29;20048;-62
2022/06/29 08:09:40;;;;;;;2.90;1.60;;;;;;;;;;4924301;29;20406;-62
2022/06/29 08:12:08;;;;;;;3.42;1.45;;;;;;;;;;4920045;29;20046;-61
2022/06/29 08:14:34;;;;;;;4.53;1.20;;;;;;;;;;4931778;29;20032;-61
2022/06/29 08:17:01;;;;;;;3.47;1.40;;;;;;;;;;4924762;29;20044;-60
2022/06/29 08:19:27;;;;;;;6.13;1.67;;;;;;;;;;4929320;29;20047;-61
2022/06/29 08:21:53;;;;;;;2.10;1.20;;;;;;;;;;4932999;29;20034;-63
2022/06/29 08:24:20;;;;;;;8.55;1.50;;;;;;;;;;4920979;29;20035;-62
2022/06/29 08:26:46;;;;;;;1.75;1.25;;;;;;;;;;4921227;29;20027;-60
2022/06/29 08:29:12;;;;;;;2.03;1.50;;;;;;;;;;4930938;29;20036;-60
2022/06/29 08:31:39;;;;;;;3.03;1.98;;;;;;;;;;4926715;29;20038;-60
2022/06/29 08:34:07;;;;;;;3.55;1.40;;;;;;;;;;4923435;29;20401;-60
2022/06/29 08:36:33;;;;;;;6.40;1.60;;;;;;;;;;4922723;29;20037;-61
2022/06/29 08:39:01;;;;;;;3.65;1.33;;;;;;;;;;4919147;29;20512;-60
2022/06/29 08:41:30;;;;;;;6.47;1.40;;;;;;;;;;4920555;29;20035;-61
2022/06/29 08:43:59;;;;;;;2.17;1.35;;;;;;;;;;4921126;29;20035;-61
2022/06/29 08:46:26;;;;;;;2.58;1.27;;;;;;;;;;4923795;29;20038;-61
2022/06/29 08:48:52;;;;;;;3.15;1.80;;;;;;;;;;4923254;29;20500;-61
2022/06/29 08:51:21;;;;;;;3.38;1.60;;;;;;;;;;4917958;29;20061;-61
2022/06/29 08:53:50;;;;;;;3.72;1.35;;;;;;;;;;4920389;29;20500;-61
2022/06/29 08:56:17;;;;;;;2.22;1.42;;;;;;;;;;4919437;29;20422;-61
2022/06/29 08:58:45;;;;;;;3.85;1.30;;;;;;;;;;4922740;29;20040;-61
2022/06/29 09:01:12;;;;;;;5.32;1.42;;;;;;;;;;4926526;29;20517;-61
2022/06/29 09:03:40;;;;;;;2.30;1.48;;;;;;;;;;4933259;29;20038;-61
2022/06/29 09:06:06;;;;;;;3.10;1.30;;;;;;;;;;4918796;29;20542;-61
2022/06/29 09:08:33;;;;;;;2.08;1.35;;;;;;;;;;4933474;29;20484;-60
2022/06/29 09:11:19;;;;;;;2.55;1.50;;;;;;;;;;4930086;29;20050;-61
2022/06/29 09:13:46;;;;;;;2.65;1.48;;;;;;;;;;4930914;29;20037;-62
2022/06/29 09:16:12;;;;;;;3.90;1.50;;;;;;;;;;4927588;29;20432;-60
2022/06/29 09:18:39;;;;;;;3.00;1.42;;;;;;;;;;4934920;29;20036;-62
2022/06/29 09:21:06;;;;;;;6.25;1.58;;;;;;;;;;4937592;29;20032;-60
2022/06/29 09:23:33;;;;;;;4.05;1.65;;;;;;;;;;4934385;29;20397;-60
2022/06/29 09:26:00;;;;;;;3.85;2.08;;;;;;;;;;4928392;29;20035;-61
2022/06/29 09:28:28;;;;;;;6.20;1.35;;;;;;;;;;4932298;29;20039;-61
2022/06/29 09:30:55;;;;;;;4.93;1.70;;;;;;;;;;4945745;28;20027;-61
2022/06/29 09:33:23;;;;;;;3.75;1.70;;;;;;;;;;4937387;29;20039;-61
2022/06/29 09:36:06;;;;;;;2.95;1.58;;;;;;;;;;4940159;29;20031;-62
2022/06/29 09:38:32;;;;;;;3.85;1.40;;;;;;;;;;4934702;29;20037;-61
2022/06/29 09:40:59;;;;;;;5.50;1.90;;;;;;;;;;4936488;29;20023;-62
2022/06/29 09:43:27;;;;;;;6.18;1.70;;;;;;;;;;4933896;28;20038;-61
2022/06/29 09:45:54;;;;;;;2.58;1.60;;;;;;;;;;4942009;28;20031;-62
2022/06/29 09:48:25;;;;;;;2.83;1.70;;;;;;;;;;4932162;29;20032;-61
2022/06/29 09:50:54;;;;;;;5.93;1.88;;;;;;;;;;4931384;29;20408;-61
2022/06/29 09:53:38;;;;;;;5.72;1.70;;;;;;;;;;4937502;29;20042;-62
2022/06/29 09:56:06;;;;;;;5.85;1.77;;;;;;;;;;4921735;29;20024;-62
2022/06/29 09:58:48;;;;;;;2.55;1.67;;;;;;;;;;4922631;29;20517;-62
2022/06/29 10:04:01;;;;;;;2.92;1.63;;;;;;;;;;4927215;29;20041;-62
2022/06/29 10:06:28;;;;;;;2.83;1.60;;;;;;;;;;4932034;29;20035;-62
2022/06/29 10:08:56;;;;;;;3.55;1.80;;;;;;;;;;4917455;29;20038;-61
2022/06/29 10:14:15;;;;;;;5.25;1.83;;;;;;;;;;4936137;28;20038;-61
2022/06/29 10:16:50;;;;;;;2.92;1.55;;;;;;;;;;4930910;28;20036;-61
2022/06/29 10:19:33;;;;;;;2.63;1.70;;;;;;;;;;4925099;29;20090;-61
2022/06/29 10:22:01;;;;;;;3.30;1.48;;;;;;;;;;4933779;29;20031;-62
2022/06/29 10:24:28;;;;;;;3.47;1.50;;;;;;;;;;4923752;29;20031;-62
2022/06/29 10:26:54;;;;;;;3.20;1.50;;;;;;;;;;4921494;29;20600;-62
2022/06/29 10:29:24;;;;;;;2.35;1.73;;;;;;;;;;4923887;29;20028;-62
2022/06/29 10:32:02;;;;;;;3.60;1.90;;;;;;;;;;4924733;29;20034;-62
2022/06/29 10:34:32;;;;;;;3.42;1.80;;;;;;;;;;4925909;29;20031;-62
2022/06/29 10:37:05;;;;;;;2.60;1.73;;;;;;;;;;4925619;29;20023;-62
2022/06/29 10:39:44;;;;;;;2.65;1.40;;;;;;;;;;4924750;29;20019;-62
2022/06/29 10:45:17;;;;;;;2.03;1.50;;;;;;;;;;4920825;29;20306;-62
2022/06/29 10:48:06;;;;;;;3.10;1.50;;;;;;;;;;4933697;29;20028;-61
2022/06/29 10:50:33;;;;;;;3.63;1.80;;;;;;;;;;4921723;29;20036;-62
2022/06/29 10:53:10;;;;;;;2.50;1.50;;;;;;;;;;4925582;29;20042;-62
2022/06/29 10:55:38;;;;;;;2.15;1.30;;;;;;;;;;4931801;29;20035;-62
2022/06/29 10:58:04;;;;;;;4.55;1.63;;;;;;;;;;4940344;28;20024;-62
2022/06/29 11:00:35;;;;;;;1.90;1.45;;;;;;;;;;4923906;29;20531;-62
2022/06/29 11:03:09;;;;;;;3.33;1.48;;;;;;;;;;4942147;29;20034;-61
2022/06/29 11:05:35;;;;;;;3.40;1.70;;;;;;;;;;4932493;29;20030;-61
2022/06/29 11:13:32;;;;;;;2.15;1.40;;;;;;;;;;4925053;29;20032;-62
2022/06/29 11:15:59;;;;;;;4.18;1.40;;;;;;;;;;4924739;29;20027;-61
2022/06/29 11:18:27;;;;;;;2.08;1.13;;;;;;;;;;4923051;29;20365;-61
2022/06/29 11:20:54;;;;;;;1.40;1.13;;;;;;;;;;4919679;29;20036;-61
2022/06/29 11:23:24;;;;;;;1.63;1.13;;;;;;;;;;4923430;29;20040;-62
2022/06/29 11:25:54;;;;;;;2.25;1.30;;;;;;;;;;4925046;29;20028;-61
2022/06/29 11:28:21;;;;;;;2.17;1.27;;;;;;;;;;4925041;29;20036;-62
2022/06/29 11:30:58;;;;;;;7.25;1.30;;;;;;;;;;4924939;29;20038;-61
2022/06/29 11:33:27;;;;;;;2.58;1.30;;;;;;;;;;4922998;29;20050;-61
2022/06/29 11:35:54;;;;;;;1.45;1.20;;;;;;;;;;4920495;29;20036;-61
2022/06/29 11:38:20;;;;;;;2.50;1.20;;;;;;;;;;4931729;29;20098;-62
2022/06/29 11:40:50;;;;;;;4.03;1.52;;;;;;;;;;4926809;29;20032;-62
2022/06/29 11:43:18;;;;;;;3.38;1.40;;;;;;;;;;4927411;29;20032;-63
2022/06/29 11:45:57;;;;;;;2.30;1.30;;;;;;;;;;4931600;29;20028;-61
2022/06/29 11:48:25;;;;;;;1.98;1.20;;;;;;;;;;4934147;29;20034;-61
2022/06/29 11:50:51;;;;;;;1.42;1.10;;;;;;;;;;4919312;29;20058;-62
2022/06/29 11:53:37;;;;;;;1.30;1.17;;;;;;;;;;4922382;29;20493;-61
2022/06/29 11:56:10;;;;;;;1.98;1.23;;;;;;;;;;4938626;29;20033;-60
2022/06/29 11:58:39;;;;;;;2.05;1.00;;;;;;;;;;4930848;28;20026;-61
2022/06/29 12:01:10;;;;;;;3.63;1.20;;;;;;;;;;4923935;29;20024;-61
2022/06/29 12:03:37;;;;;;;2.03;1.20;;;;;;;;;;4923496;29;20505;-60
2022/06/29 12:06:04;;;;;;;1.85;1.38;;;;;;;;;;4919669;29;20038;-60
2022/06/29 12:08:31;;;;;;;4.70;1.30;;;;;;;;;;4921027;29;20028;-61
2022/06/29 12:10:57;;;;;;;4.10;1.08;;;;;;;;;;4923753;29;20046;-60
2022/06/29 12:13:27;;;;;;;4.35;1.27;;;;;;;;;;4922918;29;20042;-61
2022/06/29 12:15:53;;;;;;;3.53;1.27;;;;;;;;;;4925449;29;20023;-62
2022/06/29 12:18:20;;;;;;;3.42;1.20;;;;;;;;;;4921015;29;20040;-60
2022/06/29 12:20:46;;;;;;;1.88;1.20;;;;;;;;;;4918859;29;20484;-61
2022/06/29 12:23:12;;;;;;;2.45;1.00;;;;;;;;;;4933256;29;20400;-61
2022/06/29 12:25:39;;;;;;;1.38;1.10;;;;;;;;;;4931252;29;20031;-60
2022/06/29 12:28:05;;;;;;;1.75;1.10;;;;;;;;;;4928996;29;20040;-61
2022/06/29 12:30:31;;;;;;;2.65;1.40;;;;;;;;;;4922733;29;20034;-61
2022/06/29 12:32:58;;;;;;;1.42;1.08;;;;;;;;;;4919080;29;20036;-63
2022/06/29 12:35:24;;;;;;;2.13;1.10;;;;;;;;;;4934003;29;20034;-62
2022/06/29 12:37:53;;;;;;;2.97;1.10;;;;;;;;;;4930407;29;20023;-63
2022/06/29 12:40:20;;;;;;;3.17;1.25;;;;;;;;;;4929205;29;20036;-63
2022/06/29 12:42:47;;;;;;;1.08;1.00;;;;;;;;;;4923422;29;20476;-63
2022/06/29 12:45:13;;;;;;;1.38;0.90;;;;;;;;;;4919931;29;20020;-63
2022/06/29 12:47:40;;;;;;;3.25;1.05;;;;;;;;;;4919401;29;20489;-63
2022/06/29 12:50:06;;;;;;;2.10;1.00;;;;;;;;;;4923582;29;20523;-62
2022/06/29 12:52:32;;;;;;;2.80;0.98;;;;;;;;;;4923469;29;20036;-63
2022/06/29 12:54:58;;;;;;;2.58;1.08;;;;;;;;;;4921090;29;20427;-63
2022/06/29 12:57:25;;;;;;;5.47;1.30;;;;;;;;;;4942395;29;20456;-63
2022/06/29 12:59:51;;;;;;;2.25;1.08;;;;;;;;;;4932645;29;20042;-63
2022/06/29 13:02:21;;;;;;;2.25;1.00;;;;;;;;;;4921883;29;20036;-63
2022/06/29 13:04:48;;;;;;;2.13;1.13;;;;;;;;;;4923177;29;20043;-63
2022/06/29 13:07:14;;;;;;;3.35;1.10;;;;;;;;;;4930915;29;20042;-62
2022/06/29 13:09:41;;;;;;;1.40;1.00;;;;;;;;;;4933958;29;20477;-63
2022/06/29 13:12:07;;;;;;;2.97;1.00;;;;;;;;;;4918770;29;20489;-62
2022/06/29 13:14:34;;;;;;;3.95;0.88;;;;;;;;;;4930299;29;20023;-62
2022/06/29 13:17:01;;;;;;;2.45;0.90;;;;;;;;;;4923359;29;20051;-62
2022/06/29 13:19:27;;;;;;;4.50;0.90;;;;;;;;;;4923186;29;20032;-62
2022/06/29 13:21:54;;;;;;;3.10;1.08;;;;;;;;;;4922815;29;20019;-61
2022/06/29 13:24:20;;;;;;;3.10;0.95;;;;;;;;;;4919406;29;20110;-62
2022/06/29 13:26:46;;;;;;;2.22;0.80;;;;;;;;;;4933935;29;20023;-63
2022/06/29 13:29:13;;;;;;;1.58;0.70;;;;;;;;;;4922355;29;20034;-62
2022/06/29 13:31:41;;;;;;;1.65;0.93;;;;;;;;;;4922843;29;20788;-63
2022/06/29 13:34:08;;;;;;;0.80;0.68;;;;;;;;;;4922333;29;20028;-63
2022/06/29 13:36:34;;;;;;;3.42;1.20;;;;;;;;;;4933671;29;20026;-62
2022/06/29 13:39:00;;;;;;;1.73;0.88;;;;;;;;;;4918144;29;20026;-63
2022/06/29 13:41:27;;;;;;;5.03;1.00;;;;;;;;;;4920253;29;20521;-62
2022/06/29 13:43:53;;;;;;;2.65;0.73;;;;;;;;;;4922425;29;20032;-63
2022/06/29 13:46:20;;;;;;;4.47;0.70;;;;;;;;;;4922805;29;20046;-62
2022/06/29 13:48:46;;;;;;;1.60;0.73;;;;;;;;;;4923031;29;20015;-62
2022/06/29 13:51:12;;;;;;;2.67;1.02;;;;;;;;;;4918890;29;20493;-62
2022/06/29 13:53:39;;;;;;;4.18;1.27;;;;;;;;;;4918365;29;20040;-62
2022/06/29 13:56:05;;;;;;;2.65;0.90;;;;;;;;;;4936323;29;20011;-62
2022/06/29 13:58:32;;;;;;;3.05;1.00;;;;;;;;;;4933615;29;20153;-62
2022/06/29 14:00:59;;;;;;;0.80;0.80;;;;;;;;;;4930982;29;20030;-63
2022/06/29 14:03:25;;;;;;;2.15;0.85;;;;;;;;;;4920478;29;20026;-63
2022/06/29 14:05:51;;;;;;;2.30;0.95;;;;;;;;;;4923379;29;20392;-62
2022/06/29 14:08:18;;;;;;;1.80;0.80;;;;;;;;;;4929422;29;20090;-62
2022/06/29 14:10:44;;;;;;;1.83;0.70;;;;;;;;;;4924916;29;20048;-61
2022/06/29 14:13:10;;;;;;;1.42;0.95;;;;;;;;;;4922631;29;20036;-62
2022/06/29 14:15:37;;;;;;;2.33;0.80;;;;;;;;;;4933210;29;20012;-62
2022/06/29 14:18:03;;;;;;;2.33;0.77;;;;;;;;;;4917952;29;20051;-62
2022/06/29 14:20:30;;;;;;;2.03;0.80;;;;;;;;;;4919950;29;20021;-62
2022/06/29 14:22:59;;;;;;;1.10;0.63;;;;;;;;;;4922064;29;20052;-62
2022/06/29 14:25:26;;;;;;;1.77;0.82;;;;;;;;;;4922627;29;20036;-63
2022/06/29 14:27:52;;;;;;;1.17;0.70;;;;;;;;;;4922792;29;20023;-62
2022/06/29 14:30:18;;;;;;;2.58;0.90;;;;;;;;;;4919759;29;20090;-62
2022/06/29 14:32:45;;;;;;;2.78;0.75;;;;;;;;;;4929407;29;20042;-62
2022/06/29 14:35:12;;;;;;;2.08;0.93;;;;;;;;;;4932572;29;20515;-62
2022/06/29 14:37:38;;;;;;;1.23;0.82;;;;;;;;;;4931992;29;20035;-62
2022/06/29 14:40:05;;;;;;;3.13;1.00;;;;;;;;;;4932119;29;20024;-63
2022/06/29 14:42:33;;;;;;;1.30;0.63;;;;;;;;;;4932175;29;20028;-63
2022/06/29 14:44:59;;;;;;;4.75;0.90;;;;;;;;;;4931781;29;20046;-62
2022/06/29 14:47:26;;;;;;;2.05;1.00;;;;;;;;;;4932830;29;20027;-62
2022/06/29 14:49:52;;;;;;;5.82;1.00;;;;;;;;;;4932671;29;20044;-62
2022/06/29 14:52:18;;;;;;;4.13;0.93;;;;;;;;;;4927058;29;20043;-62
2022/06/29 14:54:46;;;;;;;2.85;0.93;;;;;;;;;;4934305;29;20024;-63
2022/06/29 14:57:12;;;;;;;3.28;0.95;;;;;;;;;;4922425;29;20030;-62
2022/06/29 14:59:42;;;;;;;4.75;0.73;;;;;;;;;;4922193;29;20032;-62
2022/06/29 15:02:09;;;;;;;1.92;0.85;;;;;;;;;;4925711;29;20029;-63
2022/06/29 15:04:36;;;;;;;1.05;0.75;;;;;;;;;;4925955;29;20032;-63
2022/06/29 15:07:02;;;;;;;2.03;0.70;;;;;;;;;;4925497;29;20548;-62
2022/06/29 15:09:33;;;;;;;3.15;0.82;;;;;;;;;;4924464;29;20031;-62
2022/06/29 15:12:00;;;;;;;1.48;0.80;;;;;;;;;;4921166;29;20043;-62